sensor_id;sensor_type;location;lat;lon;timestamp;P1;durP1;ratioP1;P2;durP2;ratioP2
18447;SDS011;9353;50.956;6.920;2022-11-15T00:02:08;8.13;;;7.43;;
18447;SDS011;9353;50.956;6.920;2022-11-15T00:04:35;7.87;;;7.17;;
18447;SDS011;9353;50.956;6.920;2022-11-15T00:07:02;8.00;;;7.50;;
18447;SDS011;9353;50.956;6.920;2022-11-15T00:09:30;8.63;;;7.93;;
18447;SDS011;9353;50.956;6.920;2022-11-15T00:11:57;8.67;;;8.07;;
18447;SDS011;9353;50.956;6.920;2022-11-15T00:14:24;7.97;;;7.27;;
18447;SDS011;9353;50.956;6.920;2022-11-15T00:16:51;8.43;;;7.83;;
18447;SDS011;9353;50.956;6.920;2022-11-15T00:19:19;7.90;;;7.40;;
18447;SDS011;9353;50.956;6.920;2022-11-15T00:21:46;7.77;;;7.33;;
18447;SDS011;9353;50.956;6.920;2022-11-15T00:24:13;8.73;;;8.13;;
18447;SDS011;9353;50.956;6.920;2022-11-15T00:26:41;7.47;;;7.03;;
18447;SDS011;9353;50.956;6.920;2022-11-15T00:29:08;9.20;;;8.30;;
18447;SDS011;9353;50.956;6.920;2022-11-15T00:31:35;8.00;;;7.37;;
18447;SDS011;9353;50.956;6.920;2022-11-15T00:34:02;8.60;;;8.00;;
18447;SDS011;9353;50.956;6.920;2022-11-15T00:36:32;7.80;;;7.00;;
18447;SDS011;9353;50.956;6.920;2022-11-15T00:38:59;7.77;;;7.23;;
18447;SDS011;9353;50.956;6.920;2022-11-15T00:41:26;9.07;;;8.27;;
18447;SDS011;9353;50.956;6.920;2022-11-15T00:43:55;8.23;;;7.40;;
18447;SDS011;9353;50.956;6.920;2022-11-15T00:46:22;8.67;;;7.33;;
18447;SDS011;9353;50.956;6.920;2022-11-15T00:48:49;7.63;;;7.03;;
18447;SDS011;9353;50.956;6.920;2022-11-15T00:51:16;8.27;;;7.63;;
18447;SDS011;9353;50.956;6.920;2022-11-15T00:53:43;8.47;;;7.93;;
18447;SDS011;9353;50.956;6.920;2022-11-15T00:56:10;7.90;;;7.23;;
18447;SDS011;9353;50.956;6.920;2022-11-15T00:58:37;8.50;;;7.70;;
18447;SDS011;9353;50.956;6.920;2022-11-15T01:01:06;8.50;;;7.80;;
18447;SDS011;9353;50.956;6.920;2022-11-15T01:03:34;7.67;;;6.97;;
18447;SDS011;9353;50.956;6.920;2022-11-15T01:06:01;8.57;;;7.87;;
18447;SDS011;9353;50.956;6.920;2022-11-15T01:08:28;8.40;;;7.90;;
18447;SDS011;9353;50.956;6.920;2022-11-15T01:10:59;7.73;;;7.07;;
18447;SDS011;9353;50.956;6.920;2022-11-15T01:13:28;8.17;;;7.47;;
18447;SDS011;9353;50.956;6.920;2022-11-15T01:15:56;8.43;;;7.83;;
18447;SDS011;9353;50.956;6.920;2022-11-15T01:18:24;8.20;;;7.70;;
18447;SDS011;9353;50.956;6.920;2022-11-15T01:20:51;8.50;;;7.87;;
18447;SDS011;9353;50.956;6.920;2022-11-15T01:23:18;10.40;;;8.03;;
18447;SDS011;9353;50.956;6.920;2022-11-15T01:25:45;8.20;;;7.53;;
18447;SDS011;9353;50.956;6.920;2022-11-15T01:28:12;8.27;;;7.67;;
18447;SDS011;9353;50.956;6.920;2022-11-15T01:30:39;7.80;;;7.30;;
18447;SDS011;9353;50.956;6.920;2022-11-15T01:33:07;10.10;;;8.27;;
18447;SDS011;9353;50.956;6.920;2022-11-15T01:35:39;9.20;;;8.40;;
18447;SDS011;9353;50.956;6.920;2022-11-15T01:38:06;8.83;;;7.93;;
18447;SDS011;9353;50.956;6.920;2022-11-15T01:40:33;7.73;;;7.23;;
18447;SDS011;9353;50.956;6.920;2022-11-15T01:45:44;7.63;;;7.03;;
18447;SDS011;9353;50.956;6.920;2022-11-15T01:48:12;10.10;;;8.23;;
18447;SDS011;9353;50.956;6.920;2022-11-15T01:50:40;8.23;;;7.60;;
18447;SDS011;9353;50.956;6.920;2022-11-15T01:53:07;8.40;;;7.67;;
18447;SDS011;9353;50.956;6.920;2022-11-15T01:55:35;8.27;;;7.57;;
18447;SDS011;9353;50.956;6.920;2022-11-15T01:58:03;7.60;;;7.13;;
18447;SDS011;9353;50.956;6.920;2022-11-15T02:00:31;8.97;;;8.00;;
18447;SDS011;9353;50.956;6.920;2022-11-15T02:02:58;8.27;;;7.77;;
18447;SDS011;9353;50.956;6.920;2022-11-15T02:05:25;8.50;;;7.63;;
18447;SDS011;9353;50.956;6.920;2022-11-15T02:07:54;8.73;;;8.03;;
18447;SDS011;9353;50.956;6.920;2022-11-15T02:10:21;9.23;;;8.43;;
18447;SDS011;9353;50.956;6.920;2022-11-15T02:12:49;8.67;;;7.97;;
18447;SDS011;9353;50.956;6.920;2022-11-15T02:15:16;8.73;;;8.00;;
18447;SDS011;9353;50.956;6.920;2022-11-15T02:17:50;8.60;;;8.00;;
18447;SDS011;9353;50.956;6.920;2022-11-15T02:20:30;8.33;;;7.73;;
18447;SDS011;9353;50.956;6.920;2022-11-15T02:25:51;9.17;;;8.37;;
18447;SDS011;9353;50.956;6.920;2022-11-15T02:28:27;8.30;;;7.70;;
18447;SDS011;9353;50.956;6.920;2022-11-15T02:31:04;8.43;;;7.93;;
18447;SDS011;9353;50.956;6.920;2022-11-15T02:33:35;9.07;;;8.30;;
18447;SDS011;9353;50.956;6.920;2022-11-15T02:36:05;8.03;;;7.43;;
18447;SDS011;9353;50.956;6.920;2022-11-15T02:38:34;7.90;;;7.30;;
18447;SDS011;9353;50.956;6.920;2022-11-15T02:41:06;8.40;;;7.70;;
18447;SDS011;9353;50.956;6.920;2022-11-15T02:43:36;8.03;;;7.47;;
18447;SDS011;9353;50.956;6.920;2022-11-15T02:46:23;8.67;;;7.87;;
18447;SDS011;9353;50.956;6.920;2022-11-15T02:49:13;8.10;;;7.50;;
18447;SDS011;9353;50.956;6.920;2022-11-15T02:51:41;8.93;;;8.07;;
18447;SDS011;9353;50.956;6.920;2022-11-15T02:54:10;7.83;;;7.33;;
18447;SDS011;9353;50.956;6.920;2022-11-15T02:56:39;7.87;;;7.37;;
18447;SDS011;9353;50.956;6.920;2022-11-15T02:59:13;7.97;;;7.13;;
18447;SDS011;9353;50.956;6.920;2022-11-15T03:01:49;7.60;;;7.10;;
18447;SDS011;9353;50.956;6.920;2022-11-15T03:04:21;7.70;;;7.10;;
18447;SDS011;9353;50.956;6.920;2022-11-15T03:06:52;8.40;;;7.70;;
18447;SDS011;9353;50.956;6.920;2022-11-15T03:09:24;7.50;;;7.10;;
18447;SDS011;9353;50.956;6.920;2022-11-15T03:11:56;7.53;;;7.03;;
18447;SDS011;9353;50.956;6.920;2022-11-15T03:14:25;7.30;;;6.90;;
18447;SDS011;9353;50.956;6.920;2022-11-15T03:16:58;7.47;;;6.97;;
18447;SDS011;9353;50.956;6.920;2022-11-15T03:19:30;6.83;;;6.43;;
18447;SDS011;9353;50.956;6.920;2022-11-15T03:21:59;7.50;;;7.00;;
18447;SDS011;9353;50.956;6.920;2022-11-15T03:24:27;7.50;;;7.00;;
18447;SDS011;9353;50.956;6.920;2022-11-15T03:26:55;7.50;;;6.80;;
18447;SDS011;9353;50.956;6.920;2022-11-15T03:29:24;6.83;;;6.30;;
18447;SDS011;9353;50.956;6.920;2022-11-15T03:31:53;6.57;;;5.87;;
18447;SDS011;9353;50.956;6.920;2022-11-15T03:34:25;6.80;;;6.23;;
18447;SDS011;9353;50.956;6.920;2022-11-15T03:36:53;7.17;;;6.67;;
18447;SDS011;9353;50.956;6.920;2022-11-15T03:39:20;6.37;;;6.00;;
18447;SDS011;9353;50.956;6.920;2022-11-15T03:41:48;6.43;;;5.93;;
18447;SDS011;9353;50.956;6.920;2022-11-15T03:44:20;6.53;;;6.03;;
18447;SDS011;9353;50.956;6.920;2022-11-15T03:46:54;6.50;;;6.07;;
18447;SDS011;9353;50.956;6.920;2022-11-15T03:49:24;7.73;;;6.13;;
18447;SDS011;9353;50.956;6.920;2022-11-15T03:51:55;5.83;;;5.43;;
18447;SDS011;9353;50.956;6.920;2022-11-15T03:54:23;6.80;;;6.30;;
18447;SDS011;9353;50.956;6.920;2022-11-15T03:56:50;6.67;;;6.17;;
18447;SDS011;9353;50.956;6.920;2022-11-15T03:59:17;5.40;;;5.10;;
18447;SDS011;9353;50.956;6.920;2022-11-15T04:01:44;6.57;;;6.17;;
18447;SDS011;9353;50.956;6.920;2022-11-15T04:04:11;6.00;;;5.70;;
18447;SDS011;9353;50.956;6.920;2022-11-15T04:06:39;7.37;;;6.87;;
18447;SDS011;9353;50.956;6.920;2022-11-15T04:09:06;6.97;;;6.57;;
18447;SDS011;9353;50.956;6.920;2022-11-15T04:11:33;6.63;;;6.13;;
18447;SDS011;9353;50.956;6.920;2022-11-15T04:14:01;7.10;;;6.60;;
18447;SDS011;9353;50.956;6.920;2022-11-15T04:16:28;6.90;;;6.50;;
18447;SDS011;9353;50.956;6.920;2022-11-15T04:18:55;7.57;;;7.07;;
18447;SDS011;9353;50.956;6.920;2022-11-15T04:21:36;6.87;;;6.40;;
18447;SDS011;9353;50.956;6.920;2022-11-15T04:24:36;6.93;;;6.27;;
18447;SDS011;9353;50.956;6.920;2022-11-15T04:27:03;7.13;;;6.53;;
18447;SDS011;9353;50.956;6.920;2022-11-15T04:29:30;7.17;;;6.67;;
18447;SDS011;9353;50.956;6.920;2022-11-15T04:32:00;7.20;;;6.70;;
18447;SDS011;9353;50.956;6.920;2022-11-15T04:34:28;6.80;;;6.40;;
18447;SDS011;9353;50.956;6.920;2022-11-15T04:36:55;6.60;;;6.10;;
18447;SDS011;9353;50.956;6.920;2022-11-15T04:39:38;8.43;;;6.97;;
18447;SDS011;9353;50.956;6.920;2022-11-15T04:42:05;7.17;;;6.67;;
18447;SDS011;9353;50.956;6.920;2022-11-15T04:44:33;6.83;;;6.17;;
18447;SDS011;9353;50.956;6.920;2022-11-15T04:47:00;6.90;;;6.50;;
18447;SDS011;9353;50.956;6.920;2022-11-15T04:49:27;6.77;;;6.37;;
18447;SDS011;9353;50.956;6.920;2022-11-15T04:51:54;6.50;;;6.00;;
18447;SDS011;9353;50.956;6.920;2022-11-15T04:54:21;6.33;;;6.03;;
18447;SDS011;9353;50.956;6.920;2022-11-15T04:56:49;6.77;;;6.37;;
18447;SDS011;9353;50.956;6.920;2022-11-15T04:59:16;6.27;;;5.90;;
18447;SDS011;9353;50.956;6.920;2022-11-15T05:01:44;7.10;;;6.60;;
18447;SDS011;9353;50.956;6.920;2022-11-15T05:04:11;6.37;;;6.00;;
18447;SDS011;9353;50.956;6.920;2022-11-15T05:06:47;6.67;;;6.17;;
18447;SDS011;9353;50.956;6.920;2022-11-15T05:09:14;6.03;;;5.67;;
18447;SDS011;9353;50.956;6.920;2022-11-15T05:11:41;6.53;;;5.93;;
18447;SDS011;9353;50.956;6.920;2022-11-15T05:14:10;6.27;;;5.97;;
18447;SDS011;9353;50.956;6.920;2022-11-15T05:16:37;6.17;;;5.80;;
18447;SDS011;9353;50.956;6.920;2022-11-15T05:19:05;6.00;;;5.60;;
18447;SDS011;9353;50.956;6.920;2022-11-15T05:21:32;6.30;;;5.90;;
18447;SDS011;9353;50.956;6.920;2022-11-15T05:23:59;6.13;;;5.80;;
18447;SDS011;9353;50.956;6.920;2022-11-15T05:26:26;6.37;;;6.00;;
18447;SDS011;9353;50.956;6.920;2022-11-15T05:28:54;5.83;;;5.30;;
18447;SDS011;9353;50.956;6.920;2022-11-15T05:31:22;5.70;;;5.33;;
18447;SDS011;9353;50.956;6.920;2022-11-15T05:33:50;6.13;;;5.73;;
18447;SDS011;9353;50.956;6.920;2022-11-15T05:36:18;5.87;;;5.57;;
18447;SDS011;9353;50.956;6.920;2022-11-15T05:38:46;5.43;;;5.13;;
18447;SDS011;9353;50.956;6.920;2022-11-15T05:41:14;5.67;;;5.37;;
18447;SDS011;9353;50.956;6.920;2022-11-15T05:43:43;5.27;;;4.97;;
18447;SDS011;9353;50.956;6.920;2022-11-15T05:46:10;5.83;;;5.43;;
18447;SDS011;9353;50.956;6.920;2022-11-15T05:48:39;5.77;;;5.37;;
18447;SDS011;9353;50.956;6.920;2022-11-15T05:51:08;5.63;;;5.33;;
18447;SDS011;9353;50.956;6.920;2022-11-15T05:53:35;6.03;;;5.50;;
18447;SDS011;9353;50.956;6.920;2022-11-15T05:56:03;5.23;;;4.93;;
18447;SDS011;9353;50.956;6.920;2022-11-15T05:58:31;5.50;;;5.20;;
18447;SDS011;9353;50.956;6.920;2022-11-15T06:00:58;5.03;;;4.73;;
18447;SDS011;9353;50.956;6.920;2022-11-15T06:03:26;5.83;;;5.43;;
18447;SDS011;9353;50.956;6.920;2022-11-15T06:05:54;5.83;;;5.30;;
18447;SDS011;9353;50.956;6.920;2022-11-15T06:08:21;6.00;;;5.70;;
18447;SDS011;9353;50.956;6.920;2022-11-15T06:10:48;5.80;;;5.40;;
18447;SDS011;9353;50.956;6.920;2022-11-15T06:13:15;5.30;;;5.00;;
18447;SDS011;9353;50.956;6.920;2022-11-15T06:15:42;5.50;;;5.20;;
18447;SDS011;9353;50.956;6.920;2022-11-15T06:18:10;5.33;;;5.03;;
18447;SDS011;9353;50.956;6.920;2022-11-15T06:20:37;6.43;;;4.93;;
18447;SDS011;9353;50.956;6.920;2022-11-15T06:23:05;5.63;;;5.30;;
18447;SDS011;9353;50.956;6.920;2022-11-15T06:25:32;5.67;;;5.17;;
18447;SDS011;9353;50.956;6.920;2022-11-15T06:27:59;5.00;;;4.70;;
18447;SDS011;9353;50.956;6.920;2022-11-15T06:30:26;5.30;;;4.97;;
18447;SDS011;9353;50.956;6.920;2022-11-15T06:32:58;4.00;;;3.80;;
18447;SDS011;9353;50.956;6.920;2022-11-15T06:35:26;5.03;;;4.43;;
18447;SDS011;9353;50.956;6.920;2022-11-15T06:37:53;4.63;;;4.43;;
18447;SDS011;9353;50.956;6.920;2022-11-15T06:40:21;4.60;;;3.73;;
18447;SDS011;9353;50.956;6.920;2022-11-15T06:42:48;4.27;;;4.07;;
18447;SDS011;9353;50.956;6.920;2022-11-15T06:45:15;4.47;;;4.17;;
18447;SDS011;9353;50.956;6.920;2022-11-15T06:47:44;4.10;;;3.83;;
18447;SDS011;9353;50.956;6.920;2022-11-15T06:50:11;3.80;;;3.60;;
18447;SDS011;9353;50.956;6.920;2022-11-15T06:52:38;4.07;;;3.77;;
18447;SDS011;9353;50.956;6.920;2022-11-15T06:55:06;3.83;;;3.53;;
18447;SDS011;9353;50.956;6.920;2022-11-15T06:57:35;4.43;;;4.13;;
18447;SDS011;9353;50.956;6.920;2022-11-15T07:00:02;3.27;;;3.07;;
18447;SDS011;9353;50.956;6.920;2022-11-15T07:02:29;3.60;;;3.40;;
18447;SDS011;9353;50.956;6.920;2022-11-15T07:04:56;3.37;;;3.17;;
18447;SDS011;9353;50.956;6.920;2022-11-15T07:07:23;3.83;;;3.43;;
18447;SDS011;9353;50.956;6.920;2022-11-15T07:09:51;3.83;;;3.30;;
18447;SDS011;9353;50.956;6.920;2022-11-15T07:12:18;3.47;;;3.27;;
18447;SDS011;9353;50.956;6.920;2022-11-15T07:14:46;3.60;;;3.40;;
18447;SDS011;9353;50.956;6.920;2022-11-15T07:17:13;3.53;;;3.33;;
18447;SDS011;9353;50.956;6.920;2022-11-15T07:19:40;3.10;;;3.00;;
18447;SDS011;9353;50.956;6.920;2022-11-15T07:22:07;2.93;;;2.83;;
18447;SDS011;9353;50.956;6.920;2022-11-15T07:24:34;3.23;;;3.03;;
18447;SDS011;9353;50.956;6.920;2022-11-15T07:27:02;3.40;;;3.20;;
18447;SDS011;9353;50.956;6.920;2022-11-15T07:29:29;3.73;;;3.30;;
18447;SDS011;9353;50.956;6.920;2022-11-15T07:31:57;3.53;;;3.30;;
18447;SDS011;9353;50.956;6.920;2022-11-15T07:34:24;4.00;;;3.70;;
18447;SDS011;9353;50.956;6.920;2022-11-15T07:36:54;5.50;;;3.70;;
18447;SDS011;9353;50.956;6.920;2022-11-15T07:39:22;3.43;;;3.23;;
18447;SDS011;9353;50.956;6.920;2022-11-15T07:41:54;4.17;;;3.87;;
18447;SDS011;9353;50.956;6.920;2022-11-15T07:44:36;3.70;;;3.50;;
18447;SDS011;9353;50.956;6.920;2022-11-15T07:47:04;5.23;;;4.80;;
18447;SDS011;9353;50.956;6.920;2022-11-15T07:49:34;3.87;;;3.63;;
18447;SDS011;9353;50.956;6.920;2022-11-15T07:52:01;3.80;;;3.53;;
18447;SDS011;9353;50.956;6.920;2022-11-15T07:54:28;4.27;;;3.87;;
18447;SDS011;9353;50.956;6.920;2022-11-15T07:56:55;3.87;;;3.57;;
18447;SDS011;9353;50.956;6.920;2022-11-15T07:59:23;4.93;;;3.50;;
18447;SDS011;9353;50.956;6.920;2022-11-15T08:01:50;4.50;;;2.70;;
18447;SDS011;9353;50.956;6.920;2022-11-15T08:04:18;2.70;;;2.60;;
18447;SDS011;9353;50.956;6.920;2022-11-15T08:06:45;2.20;;;2.07;;
18447;SDS011;9353;50.956;6.920;2022-11-15T08:09:12;3.27;;;1.93;;
18447;SDS011;9353;50.956;6.920;2022-11-15T08:11:40;1.87;;;1.60;;
18447;SDS011;9353;50.956;6.920;2022-11-15T08:14:07;3.43;;;2.37;;
18447;SDS011;9353;50.956;6.920;2022-11-15T08:16:34;1.90;;;1.80;;
18447;SDS011;9353;50.956;6.920;2022-11-15T08:19:01;2.20;;;2.10;;
18447;SDS011;9353;50.956;6.920;2022-11-15T08:21:29;1.90;;;1.80;;
18447;SDS011;9353;50.956;6.920;2022-11-15T08:23:56;1.97;;;1.87;;
18447;SDS011;9353;50.956;6.920;2022-11-15T08:26:24;3.23;;;1.90;;
18447;SDS011;9353;50.956;6.920;2022-11-15T08:28:54;1.90;;;1.80;;
18447;SDS011;9353;50.956;6.920;2022-11-15T08:31:21;2.30;;;2.10;;
18447;SDS011;9353;50.956;6.920;2022-11-15T08:33:48;2.73;;;2.53;;
18447;SDS011;9353;50.956;6.920;2022-11-15T08:36:15;4.23;;;2.27;;
18447;SDS011;9353;50.956;6.920;2022-11-15T08:38:44;2.83;;;2.20;;
18447;SDS011;9353;50.956;6.920;2022-11-15T08:41:12;2.30;;;2.20;;
18447;SDS011;9353;50.956;6.920;2022-11-15T08:43:40;2.23;;;1.63;;
18447;SDS011;9353;50.956;6.920;2022-11-15T08:46:07;3.40;;;1.97;;
18447;SDS011;9353;50.956;6.920;2022-11-15T08:48:36;2.03;;;1.90;;
18447;SDS011;9353;50.956;6.920;2022-11-15T08:51:03;2.23;;;1.53;;
18447;SDS011;9353;50.956;6.920;2022-11-15T08:53:30;1.47;;;1.43;;
18447;SDS011;9353;50.956;6.920;2022-11-15T08:55:59;1.37;;;1.33;;
18447;SDS011;9353;50.956;6.920;2022-11-15T08:58:26;4.43;;;1.87;;
18447;SDS011;9353;50.956;6.920;2022-11-15T09:00:53;1.47;;;1.40;;
18447;SDS011;9353;50.956;6.920;2022-11-15T09:03:20;1.47;;;1.30;;
18447;SDS011;9353;50.956;6.920;2022-11-15T09:05:47;1.97;;;1.50;;
18447;SDS011;9353;50.956;6.920;2022-11-15T09:08:15;1.40;;;1.30;;
18447;SDS011;9353;50.956;6.920;2022-11-15T09:10:43;1.23;;;1.23;;
18447;SDS011;9353;50.956;6.920;2022-11-15T09:13:11;1.17;;;1.07;;
18447;SDS011;9353;50.956;6.920;2022-11-15T09:15:38;1.40;;;1.30;;
18447;SDS011;9353;50.956;6.920;2022-11-15T09:18:05;1.43;;;1.43;;
18447;SDS011;9353;50.956;6.920;2022-11-15T09:20:33;1.23;;;1.03;;
18447;SDS011;9353;50.956;6.920;2022-11-15T09:23:00;1.20;;;1.20;;
18447;SDS011;9353;50.956;6.920;2022-11-15T09:25:27;1.60;;;1.50;;
18447;SDS011;9353;50.956;6.920;2022-11-15T09:27:55;1.30;;;1.20;;
18447;SDS011;9353;50.956;6.920;2022-11-15T09:30:23;1.20;;;1.00;;
18447;SDS011;9353;50.956;6.920;2022-11-15T09:32:50;1.23;;;1.13;;
18447;SDS011;9353;50.956;6.920;2022-11-15T09:35:17;1.67;;;1.30;;
18447;SDS011;9353;50.956;6.920;2022-11-15T09:37:44;2.53;;;1.23;;
18447;SDS011;9353;50.956;6.920;2022-11-15T09:40:12;1.30;;;0.97;;
18447;SDS011;9353;50.956;6.920;2022-11-15T09:42:53;1.67;;;1.10;;
18447;SDS011;9353;50.956;6.920;2022-11-15T09:45:27;1.00;;;1.00;;
18447;SDS011;9353;50.956;6.920;2022-11-15T09:50:41;3.40;;;1.40;;
18447;SDS011;9353;50.956;6.920;2022-11-15T09:53:13;2.20;;;1.00;;
18447;SDS011;9353;50.956;6.920;2022-11-15T09:55:42;2.20;;;1.20;;
18447;SDS011;9353;50.956;6.920;2022-11-15T09:58:16;1.90;;;1.00;;
18447;SDS011;9353;50.956;6.920;2022-11-15T10:00:47;1.07;;;0.80;;
18447;SDS011;9353;50.956;6.920;2022-11-15T10:03:18;1.77;;;0.97;;
18447;SDS011;9353;50.956;6.920;2022-11-15T10:05:47;1.07;;;0.83;;
18447;SDS011;9353;50.956;6.920;2022-11-15T10:08:27;1.33;;;1.10;;
18447;SDS011;9353;50.956;6.920;2022-11-15T10:10:56;0.90;;;0.90;;
18447;SDS011;9353;50.956;6.920;2022-11-15T10:13:23;1.30;;;1.23;;
18447;SDS011;9353;50.956;6.920;2022-11-15T10:15:53;2.00;;;0.90;;
18447;SDS011;9353;50.956;6.920;2022-11-15T10:18:22;0.80;;;0.80;;
18447;SDS011;9353;50.956;6.920;2022-11-15T10:20:54;1.00;;;1.00;;
18447;SDS011;9353;50.956;6.920;2022-11-15T10:23:23;0.93;;;0.77;;
18447;SDS011;9353;50.956;6.920;2022-11-15T10:25:50;1.10;;;1.10;;
18447;SDS011;9353;50.956;6.920;2022-11-15T10:28:21;0.77;;;0.77;;
18447;SDS011;9353;50.956;6.920;2022-11-15T10:30:49;1.30;;;0.87;;
18447;SDS011;9353;50.956;6.920;2022-11-15T10:33:19;3.03;;;0.90;;
18447;SDS011;9353;50.956;6.920;2022-11-15T10:35:47;0.80;;;0.80;;
18447;SDS011;9353;50.956;6.920;2022-11-15T10:38:15;2.50;;;0.90;;
18447;SDS011;9353;50.956;6.920;2022-11-15T10:40:42;1.40;;;0.90;;
18447;SDS011;9353;50.956;6.920;2022-11-15T10:43:14;1.43;;;0.80;;
18447;SDS011;9353;50.956;6.920;2022-11-15T10:45:42;1.93;;;0.87;;
18447;SDS011;9353;50.956;6.920;2022-11-15T10:48:21;3.63;;;0.80;;
18447;SDS011;9353;50.956;6.920;2022-11-15T10:50:49;0.90;;;0.90;;
18447;SDS011;9353;50.956;6.920;2022-11-15T10:53:18;1.40;;;1.30;;
18447;SDS011;9353;50.956;6.920;2022-11-15T10:55:46;0.60;;;0.60;;
18447;SDS011;9353;50.956;6.920;2022-11-15T10:58:19;0.80;;;0.80;;
18447;SDS011;9353;50.956;6.920;2022-11-15T11:00:46;1.73;;;0.70;;
18447;SDS011;9353;50.956;6.920;2022-11-15T11:03:28;1.97;;;0.70;;
18447;SDS011;9353;50.956;6.920;2022-11-15T11:06:03;2.00;;;0.93;;
18447;SDS011;9353;50.956;6.920;2022-11-15T11:08:30;0.80;;;0.80;;
18447;SDS011;9353;50.956;6.920;2022-11-15T11:10:59;4.33;;;1.00;;
18447;SDS011;9353;50.956;6.920;2022-11-15T11:13:27;0.90;;;0.77;;
18447;SDS011;9353;50.956;6.920;2022-11-15T11:15:55;0.93;;;0.80;;
18447;SDS011;9353;50.956;6.920;2022-11-15T11:18:28;0.60;;;0.60;;
18447;SDS011;9353;50.956;6.920;2022-11-15T11:20:57;2.43;;;0.50;;
18447;SDS011;9353;50.956;6.920;2022-11-15T11:23:33;2.50;;;2.30;;
18447;SDS011;9353;50.956;6.920;2022-11-15T11:26:09;1.13;;;0.90;;
18447;SDS011;9353;50.956;6.920;2022-11-15T11:28:39;0.63;;;0.63;;
18447;SDS011;9353;50.956;6.920;2022-11-15T11:31:13;1.23;;;1.13;;
18447;SDS011;9353;50.956;6.920;2022-11-15T11:33:44;1.50;;;0.70;;
18447;SDS011;9353;50.956;6.920;2022-11-15T11:36:18;1.27;;;0.80;;
18447;SDS011;9353;50.956;6.920;2022-11-15T11:38:51;1.37;;;0.70;;
18447;SDS011;9353;50.956;6.920;2022-11-15T11:41:24;2.03;;;0.60;;
18447;SDS011;9353;50.956;6.920;2022-11-15T11:43:57;0.80;;;0.80;;
18447;SDS011;9353;50.956;6.920;2022-11-15T11:46:30;1.03;;;0.70;;
18447;SDS011;9353;50.956;6.920;2022-11-15T11:49:04;0.53;;;0.53;;
18447;SDS011;9353;50.956;6.920;2022-11-15T11:51:34;0.63;;;0.63;;
18447;SDS011;9353;50.956;6.920;2022-11-15T11:54:03;1.33;;;0.70;;
18447;SDS011;9353;50.956;6.920;2022-11-15T11:56:33;0.47;;;0.43;;
18447;SDS011;9353;50.956;6.920;2022-11-15T11:59:02;0.80;;;0.80;;
18447;SDS011;9353;50.956;6.920;2022-11-15T12:01:34;0.90;;;0.60;;
18447;SDS011;9353;50.956;6.920;2022-11-15T12:04:04;1.33;;;0.70;;
18447;SDS011;9353;50.956;6.920;2022-11-15T12:06:33;1.50;;;0.60;;
18447;SDS011;9353;50.956;6.920;2022-11-15T12:09:04;1.93;;;0.90;;
18447;SDS011;9353;50.956;6.920;2022-11-15T12:11:36;1.43;;;0.80;;
18447;SDS011;9353;50.956;6.920;2022-11-15T12:14:05;0.97;;;0.90;;
18447;SDS011;9353;50.956;6.920;2022-11-15T12:16:32;1.40;;;0.70;;
18447;SDS011;9353;50.956;6.920;2022-11-15T12:19:00;2.07;;;0.90;;
18447;SDS011;9353;50.956;6.920;2022-11-15T12:21:31;0.60;;;0.60;;
18447;SDS011;9353;50.956;6.920;2022-11-15T12:24:03;1.23;;;1.10;;
18447;SDS011;9353;50.956;6.920;2022-11-15T12:26:33;0.90;;;0.70;;
18447;SDS011;9353;50.956;6.920;2022-11-15T12:29:03;1.67;;;0.90;;
18447;SDS011;9353;50.956;6.920;2022-11-15T12:31:32;3.63;;;1.10;;
18447;SDS011;9353;50.956;6.920;2022-11-15T12:34:02;1.50;;;1.40;;
18447;SDS011;9353;50.956;6.920;2022-11-15T12:36:32;0.73;;;0.73;;
18447;SDS011;9353;50.956;6.920;2022-11-15T12:39:02;3.53;;;1.63;;
18447;SDS011;9353;50.956;6.920;2022-11-15T12:41:30;1.50;;;0.87;;
18447;SDS011;9353;50.956;6.920;2022-11-15T12:43:58;1.17;;;1.00;;
18447;SDS011;9353;50.956;6.920;2022-11-15T12:46:58;1.37;;;1.07;;
18447;SDS011;9353;50.956;6.920;2022-11-15T12:49:42;1.23;;;1.00;;
18447;SDS011;9353;50.956;6.920;2022-11-15T12:52:11;0.80;;;0.80;;
18447;SDS011;9353;50.956;6.920;2022-11-15T12:57:31;1.57;;;0.90;;
18447;SDS011;9353;50.956;6.920;2022-11-15T12:59:58;1.33;;;1.07;;
18447;SDS011;9353;50.956;6.920;2022-11-15T13:02:27;4.67;;;0.90;;
18447;SDS011;9353;50.956;6.920;2022-11-15T13:07:58;4.57;;;0.93;;
18447;SDS011;9353;50.956;6.920;2022-11-15T13:10:29;1.43;;;1.17;;
18447;SDS011;9353;50.956;6.920;2022-11-15T13:12:57;2.57;;;1.10;;
18447;SDS011;9353;50.956;6.920;2022-11-15T13:15:35;3.53;;;1.47;;
18447;SDS011;9353;50.956;6.920;2022-11-15T13:20:47;4.90;;;1.37;;
18447;SDS011;9353;50.956;6.920;2022-11-15T13:23:16;1.30;;;1.20;;
18447;SDS011;9353;50.956;6.920;2022-11-15T13:25:48;1.30;;;1.10;;
18447;SDS011;9353;50.956;6.920;2022-11-15T13:28:21;1.40;;;1.30;;
18447;SDS011;9353;50.956;6.920;2022-11-15T13:30:50;1.70;;;1.10;;
18447;SDS011;9353;50.956;6.920;2022-11-15T13:33:18;3.63;;;1.40;;
18447;SDS011;9353;50.956;6.920;2022-11-15T13:35:46;3.83;;;1.90;;
18447;SDS011;9353;50.956;6.920;2022-11-15T13:38:18;2.30;;;2.10;;
18447;SDS011;9353;50.956;6.920;2022-11-15T13:40:46;2.23;;;2.13;;
18447;SDS011;9353;50.956;6.920;2022-11-15T13:43:19;3.00;;;2.73;;
18447;SDS011;9353;50.956;6.920;2022-11-15T13:46:03;2.73;;;1.83;;
18447;SDS011;9353;50.956;6.920;2022-11-15T13:48:30;2.23;;;2.03;;
18447;SDS011;9353;50.956;6.920;2022-11-15T13:50:58;4.23;;;2.20;;
18447;SDS011;9353;50.956;6.920;2022-11-15T13:53:27;4.27;;;3.90;;
18447;SDS011;9353;50.956;6.920;2022-11-15T13:55:54;2.47;;;2.27;;
18447;SDS011;9353;50.956;6.920;2022-11-15T13:58:22;2.67;;;2.57;;
18447;SDS011;9353;50.956;6.920;2022-11-15T14:00:49;2.43;;;2.00;;
18447;SDS011;9353;50.956;6.920;2022-11-15T14:03:25;12.40;;;11.10;;
18447;SDS011;9353;50.956;6.920;2022-11-15T14:06:03;5.70;;;3.03;;
18447;SDS011;9353;50.956;6.920;2022-11-15T14:08:33;4.93;;;3.70;;
18447;SDS011;9353;50.956;6.920;2022-11-15T14:11:08;2.87;;;2.67;;
18447;SDS011;9353;50.956;6.920;2022-11-15T14:13:35;4.60;;;2.80;;
18447;SDS011;9353;50.956;6.920;2022-11-15T14:16:13;2.80;;;2.30;;
18447;SDS011;9353;50.956;6.920;2022-11-15T14:18:43;4.40;;;3.30;;
18447;SDS011;9353;50.956;6.920;2022-11-15T14:21:10;3.17;;;2.97;;
18447;SDS011;9353;50.956;6.920;2022-11-15T14:23:39;3.73;;;3.53;;
18447;SDS011;9353;50.956;6.920;2022-11-15T14:26:10;2.20;;;2.10;;
18447;SDS011;9353;50.956;6.920;2022-11-15T14:28:38;2.30;;;2.17;;
18447;SDS011;9353;50.956;6.920;2022-11-15T14:31:07;3.13;;;2.07;;
18447;SDS011;9353;50.956;6.920;2022-11-15T14:33:37;2.23;;;2.13;;
18447;SDS011;9353;50.956;6.920;2022-11-15T14:36:05;2.47;;;2.37;;
18447;SDS011;9353;50.956;6.920;2022-11-15T14:38:33;2.33;;;2.17;;
18447;SDS011;9353;50.956;6.920;2022-11-15T14:41:02;2.87;;;2.10;;
18447;SDS011;9353;50.956;6.920;2022-11-15T14:43:29;1.97;;;1.87;;
18447;SDS011;9353;50.956;6.920;2022-11-15T14:45:56;1.80;;;1.70;;
18447;SDS011;9353;50.956;6.920;2022-11-15T14:48:24;2.03;;;1.83;;
18447;SDS011;9353;50.956;6.920;2022-11-15T14:50:51;2.43;;;2.10;;
18447;SDS011;9353;50.956;6.920;2022-11-15T14:53:18;2.67;;;2.10;;
18447;SDS011;9353;50.956;6.920;2022-11-15T14:55:47;2.43;;;2.33;;
18447;SDS011;9353;50.956;6.920;2022-11-15T14:58:15;3.77;;;2.17;;
18447;SDS011;9353;50.956;6.920;2022-11-15T15:00:42;2.63;;;2.30;;
18447;SDS011;9353;50.956;6.920;2022-11-15T15:03:09;1.90;;;1.80;;
18447;SDS011;9353;50.956;6.920;2022-11-15T15:05:38;2.00;;;1.90;;
18447;SDS011;9353;50.956;6.920;2022-11-15T15:08:05;2.37;;;1.83;;
18447;SDS011;9353;50.956;6.920;2022-11-15T15:10:33;2.03;;;1.73;;
18447;SDS011;9353;50.956;6.920;2022-11-15T15:13:01;2.10;;;1.93;;
18447;SDS011;9353;50.956;6.920;2022-11-15T15:15:31;1.70;;;1.60;;
18447;SDS011;9353;50.956;6.920;2022-11-15T15:17:59;2.17;;;2.03;;
18447;SDS011;9353;50.956;6.920;2022-11-15T15:20:26;2.10;;;2.00;;
18447;SDS011;9353;50.956;6.920;2022-11-15T15:22:53;2.50;;;1.80;;
18447;SDS011;9353;50.956;6.920;2022-11-15T15:25:21;2.13;;;1.97;;
18447;SDS011;9353;50.956;6.920;2022-11-15T15:27:50;2.73;;;1.60;;
18447;SDS011;9353;50.956;6.920;2022-11-15T15:30:18;1.57;;;1.47;;